Cyrus, Kentucky
Current Conditions -  °F | °C
As of 6:53 PM on Wednesday 26 Nov 2014 (Local Time) from KJKL Reporting Station
Clear Clear  
Wind Chill: 41°   Ceiling: Unl
Heat Index: 41°   Visibility: 10mi
Dew Point: 26°   Wind: 3mph
Humidity: 55%   Direction: NA
Pressure: 30"   Gusts: NA
Location:  37.7261°N, 83.0786°W
Report Text: KJKL 262353Z AUTO VRB03KT 10SM CLR 05/M03 A3000 RMK AO2 SLP166 T00501033 10100 20050 53004
Loading
Personal Weather Stations






























Interactive Weather Map New forecast layout! Learn more

10-Day Weather Forecast

Advertisements
Track Severe Weather on mobile